CNO weather

Chino Airport
Chino, California, United States

Public forecast

Using degrees Fahrenheit for public forecast. Weather courtesy of forecast.io.

Current aviation weather report (METAR) for Chino Airport

Retrieved 2020/03/30 22:53 UTC (38 minutes ago):

KCNO 302253Z 24007KT 10SM SCT250 25/10 A3013 RMK AO2 SLP200 T02500100

Closest aviation forecast (TAF) to Chino Airport

Closest forecast is Ontario International Airport, 5.2 nm (9.6 km) NNE. Retrieved 2020/03/30 18:22 UTC (5 hours ago):

TAF KONT 301720Z 3018/3124 VRB04KT P6SM SKC FM302100 25010KT P6SM SKC FM310400 VRB02KT P6SM SKC